createdAt,value
2022-12-03T00:00:12.467Z,54.90
2022-12-03T00:03:15.369Z,55.28
2022-12-03T00:06:18.372Z,45.43
2022-12-03T00:09:20.690Z,51.90
2022-12-03T00:12:22.942Z,51.80
2022-12-03T00:15:25.109Z,48.20
2022-12-03T00:18:27.319Z,50.03
2022-12-03T00:21:29.507Z,47.27
2022-12-03T00:24:32.763Z,48.35
2022-12-03T00:27:34.981Z,42.60
2022-12-03T00:30:37.389Z,48.42
2022-12-03T00:33:39.619Z,48.05
2022-12-03T00:36:41.838Z,47.47
2022-12-03T00:39:44.145Z,49.78
2022-12-03T00:42:46.353Z,54.30
2022-12-03T00:45:48.609Z,42.47
2022-12-03T00:48:50.813Z,46.08
2022-12-03T00:51:53.389Z,49.33
2022-12-03T00:54:55.783Z,48.58
2022-12-03T00:57:58.394Z,48.55
2022-12-03T01:01:00.829Z,45.90
2022-12-03T01:04:03.032Z,46.50
2022-12-03T01:07:05.300Z,50.37
2022-12-03T01:10:07.761Z,45.72
2022-12-03T01:13:10.185Z,49.08
2022-12-03T01:16:12.781Z,47.42
2022-12-03T01:19:16.210Z,48.75
2022-12-03T01:22:18.731Z,49.57
2022-12-03T01:25:21.020Z,46.38
2022-12-03T01:28:23.556Z,49.83
2022-12-03T01:31:44.463Z,45.83
2022-12-03T01:34:47.596Z,50.65
2022-12-03T01:37:49.890Z,42.67
2022-12-03T01:40:52.232Z,45.00
2022-12-03T01:43:57.918Z,49.58
2022-12-03T01:47:02.135Z,54.28
2022-12-03T01:50:04.587Z,43.35
2022-12-03T01:53:06.816Z,52.00
2022-12-03T01:56:09.495Z,42.63
2022-12-03T01:59:20.781Z,42.03
2022-12-03T02:02:24.389Z,49.40
2022-12-03T02:05:36.107Z,41.60
2022-12-03T02:08:40.746Z,41.77
2022-12-03T02:11:48.501Z,43.50
2022-12-03T02:14:51.565Z,48.20
2022-12-03T02:17:54.980Z,48.17
2022-12-03T02:21:12.627Z,47.88
2022-12-03T02:24:25.094Z,52.47
2022-12-03T02:27:28.340Z,42.78
2022-12-03T02:30:31.127Z,45.42
2022-12-03T02:33:33.442Z,46.17
2022-12-03T02:36:36.208Z,42.90
2022-12-03T02:39:40.703Z,44.63
2022-12-03T02:42:43.242Z,45.63
2022-12-03T02:45:47.313Z,45.40
2022-12-03T02:48:49.598Z,44.05
2022-12-03T02:51:51.848Z,49.88
2022-12-03T02:54:54.541Z,49.47
2022-12-03T02:57:57.342Z,55.40
2022-12-03T03:01:00.689Z,49.42
2022-12-03T03:04:04.593Z,50.17
2022-12-03T03:07:06.977Z,49.40
2022-12-03T03:10:11.383Z,50.10
2022-12-03T03:13:18.006Z,48.72
2022-12-03T03:16:20.373Z,46.80
2022-12-03T03:19:25.913Z,48.30
2022-12-03T03:22:35.240Z,46.13
2022-12-03T03:25:38.538Z,46.87
2022-12-03T03:28:43.115Z,50.53
2022-12-03T03:31:46.329Z,43.25
2022-12-03T03:34:48.561Z,46.70
2022-12-03T03:37:51.381Z,45.13
2022-12-03T03:40:54.336Z,46.97
2022-12-03T03:43:56.950Z,47.53
2022-12-03T03:46:59.830Z,50.97
2022-12-03T03:50:02.461Z,49.97
2022-12-03T03:53:04.986Z,45.47
2022-12-03T03:56:07.657Z,50.70
2022-12-03T03:59:09.812Z,47.47
2022-12-03T04:02:19.819Z,50.08
2022-12-03T04:05:23.039Z,39.42
2022-12-03T04:08:25.210Z,47.58
2022-12-03T04:11:46.048Z,49.87
2022-12-03T04:14:48.235Z,47.30
2022-12-03T04:18:10.804Z,49.95
2022-12-03T04:21:32.773Z,43.47
2022-12-03T04:24:34.979Z,48.83
2022-12-03T04:27:56.056Z,49.00
2022-12-03T04:30:58.477Z,46.60
2022-12-03T04:34:36.109Z,53.15
2022-12-03T04:37:38.378Z,53.95
2022-12-03T04:40:59.598Z,48.60
2022-12-03T04:44:20.626Z,54.97
2022-12-03T04:47:22.848Z,48.40
2022-12-03T04:50:25.051Z,46.40
2022-12-03T04:53:30.205Z,52.30
2022-12-03T04:56:32.369Z,55.45
2022-12-03T04:59:35.167Z,49.20
2022-12-03T05:02:37.511Z,52.10
2022-12-03T05:05:39.729Z,55.08
2022-12-03T05:08:41.917Z,49.50
2022-12-03T05:11:44.434Z,52.90
2022-12-03T05:14:46.748Z,52.07
2022-12-03T05:17:48.952Z,49.78
2022-12-03T05:20:53.520Z,56.20
2022-12-03T05:23:55.956Z,55.85
2022-12-03T05:26:58.128Z,51.60
2022-12-03T05:30:00.467Z,49.97
2022-12-03T05:33:02.761Z,55.42
2022-12-03T05:36:04.999Z,49.95
2022-12-03T05:39:07.286Z,52.92
2022-12-03T05:42:28.760Z,47.47
2022-12-03T05:45:36.301Z,51.00
2022-12-03T05:48:38.558Z,54.20
2022-12-03T05:51:40.727Z,49.10
2022-12-03T05:54:42.893Z,46.83
2022-12-03T05:57:45.656Z,46.08
2022-12-03T06:00:48.050Z,55.07
2022-12-03T06:03:50.364Z,54.63
2022-12-03T06:06:53.209Z,54.72
2022-12-03T06:09:55.367Z,57.67
2022-12-03T06:12:57.737Z,56.80
2022-12-03T06:16:00.093Z,57.97
2022-12-03T06:19:03.583Z,52.22
2022-12-03T06:22:06.107Z,56.45
2022-12-03T06:25:08.765Z,51.10
2022-12-03T06:28:11.093Z,53.10
2022-12-03T06:31:14.050Z,50.67
2022-12-03T06:34:16.418Z,48.47
2022-12-03T06:37:19.041Z,57.55
2022-12-03T06:40:21.314Z,55.97
2022-12-03T06:43:23.520Z,51.92
2022-12-03T06:46:25.789Z,52.47
2022-12-03T06:49:27.972Z,60.53
2022-12-03T06:52:30.190Z,50.05
2022-12-03T06:55:32.440Z,60.85
2022-12-03T06:58:34.700Z,55.92
2022-12-03T07:01:36.957Z,57.57
2022-12-03T07:04:43.408Z,48.10
2022-12-03T07:07:52.360Z,54.22
2022-12-03T07:10:55.006Z,54.17
2022-12-03T07:14:01.559Z,57.75
2022-12-03T07:17:07.290Z,54.03
2022-12-03T07:20:09.793Z,55.55
2022-12-03T07:23:12.074Z,54.88
2022-12-03T07:26:14.347Z,56.03
2022-12-03T07:29:16.615Z,57.35
2022-12-03T07:32:18.785Z,61.00
2022-12-03T07:35:22.040Z,56.97
2022-12-03T07:38:24.503Z,56.15
2022-12-03T07:41:27.014Z,62.05
2022-12-03T07:44:31.490Z,62.90
2022-12-03T07:47:33.724Z,49.70
2022-12-03T07:50:35.881Z,52.78
2022-12-03T07:53:38.086Z,48.20
2022-12-03T07:56:40.329Z,48.17
2022-12-03T07:59:42.529Z,52.30
2022-12-03T08:02:44.761Z,49.60
2022-12-03T08:05:47.035Z,43.95
2022-12-03T08:08:49.489Z,47.60
2022-12-03T08:11:52.196Z,51.53
2022-12-03T08:14:54.651Z,45.25
2022-12-03T08:17:58.810Z,49.07
2022-12-03T08:21:01.009Z,39.08
2022-12-03T08:24:13.442Z,43.05
2022-12-03T08:27:18.329Z,43.75
2022-12-03T08:30:20.761Z,42.33
2022-12-03T08:33:28.587Z,37.77
2022-12-03T08:36:33.492Z,37.70
2022-12-03T08:39:39.104Z,37.10
2022-12-03T08:42:41.755Z,35.40
2022-12-03T08:45:45.229Z,38.53
2022-12-03T08:48:49.513Z,39.87
2022-12-03T08:51:55.936Z,33.90
2022-12-03T08:54:58.283Z,35.38
2022-12-03T08:58:00.606Z,34.17
2022-12-03T09:01:14.497Z,38.83
2022-12-03T09:04:24.490Z,35.30
2022-12-03T09:07:26.899Z,39.15
2022-12-03T09:10:29.298Z,36.55
2022-12-03T09:13:31.551Z,35.42
2022-12-03T09:16:33.932Z,31.65
2022-12-03T09:19:38.074Z,38.80
2022-12-03T09:22:43.697Z,41.03
2022-12-03T09:25:45.837Z,40.65
2022-12-03T09:28:48.649Z,32.10
2022-12-03T09:31:51.032Z,37.97
2022-12-03T09:34:54.181Z,35.23
2022-12-03T09:37:56.581Z,37.20
2022-12-03T09:40:59.430Z,35.72
2022-12-03T09:44:04.419Z,35.17
2022-12-03T09:47:08.200Z,33.75
2022-12-03T09:50:19.729Z,37.63
2022-12-03T09:53:23.072Z,33.70
2022-12-03T09:56:25.562Z,35.75
2022-12-03T09:59:32.161Z,34.17
2022-12-03T10:02:34.941Z,30.55
2022-12-03T10:05:37.443Z,32.60
2022-12-03T10:08:39.704Z,30.02
2022-12-03T10:11:41.913Z,28.67
2022-12-03T10:14:44.124Z,28.17
2022-12-03T10:17:46.909Z,26.40
2022-12-03T10:20:49.325Z,26.40
2022-12-03T10:24:10.403Z,30.13
2022-12-03T10:27:29.681Z,26.50
2022-12-03T10:30:32.155Z,27.27
2022-12-03T10:33:38.513Z,26.50
2022-12-03T10:36:41.516Z,24.10
2022-12-03T10:40:00.419Z,25.85
2022-12-03T10:43:17.951Z,29.25
2022-12-03T10:46:23.353Z,25.83
2022-12-03T10:49:25.668Z,26.20
2022-12-03T10:52:28.280Z,27.87
2022-12-03T10:55:35.574Z,26.90
2022-12-03T10:58:38.712Z,26.70
2022-12-03T11:01:41.239Z,25.85
2022-12-03T11:04:43.802Z,24.02
2022-12-03T11:07:46.164Z,25.43
2022-12-03T11:11:07.705Z,24.73
2022-12-03T11:14:10.472Z,24.85
2022-12-03T11:17:12.713Z,24.00
2022-12-03T11:20:22.785Z,24.23
2022-12-03T11:23:44.151Z,23.30
2022-12-03T11:26:46.351Z,24.20
2022-12-03T11:29:51.597Z,18.90
2022-12-03T11:33:00.851Z,22.52
2022-12-03T11:36:03.017Z,22.45
2022-12-03T11:39:08.393Z,25.13
2022-12-03T11:42:25.860Z,23.45
2022-12-03T11:45:30.436Z,26.98
2022-12-03T11:48:32.779Z,24.45
2022-12-03T11:51:34.967Z,23.85
2022-12-03T11:54:37.565Z,22.30
2022-12-03T11:57:39.919Z,26.35
2022-12-03T12:00:51.952Z,29.40
2022-12-03T12:03:54.325Z,23.90
2022-12-03T12:06:56.620Z,26.98
2022-12-03T12:09:58.878Z,25.87
2022-12-03T12:13:01.376Z,25.67
2022-12-03T12:16:05.313Z,22.95
2022-12-03T12:19:26.291Z,27.05
2022-12-03T12:22:29.923Z,25.35
2022-12-03T12:25:32.116Z,28.80
2022-12-03T12:28:34.277Z,24.98
2022-12-03T12:31:36.547Z,26.10
2022-12-03T12:34:49.244Z,26.98
2022-12-03T12:37:59.635Z,24.67
2022-12-03T12:41:06.806Z,26.03
2022-12-03T12:44:13.348Z,26.00
2022-12-03T12:47:15.598Z,28.52
2022-12-03T12:50:18.546Z,24.67
2022-12-03T12:53:24.154Z,24.83
2022-12-03T12:56:27.611Z,27.30
2022-12-03T12:59:29.900Z,23.60
2022-12-03T13:02:43.289Z,26.60
2022-12-03T13:05:47.353Z,25.75
2022-12-03T13:08:50.408Z,22.52
2022-12-03T13:11:53.859Z,23.77
2022-12-03T13:14:58.161Z,32.20
2022-12-03T13:18:00.967Z,25.40
2022-12-03T13:21:11.341Z,25.65
2022-12-03T13:24:28.983Z,28.63
2022-12-03T13:27:31.280Z,27.77
2022-12-03T13:30:33.462Z,26.08
2022-12-03T13:33:35.646Z,28.42
2022-12-03T13:36:44.742Z,26.52
2022-12-03T13:39:48.274Z,24.52
2022-12-03T13:42:50.492Z,25.20
2022-12-03T13:45:54.462Z,29.10
2022-12-03T13:49:00.412Z,25.27
2022-12-03T13:52:09.866Z,26.60
2022-12-03T13:55:15.185Z,26.48
2022-12-03T13:58:17.499Z,27.33
2022-12-03T14:01:19.786Z,25.20
2022-12-03T14:04:21.993Z,26.02
2022-12-03T14:07:24.264Z,27.45
2022-12-03T14:10:26.471Z,27.65
2022-12-03T14:13:28.688Z,28.53
2022-12-03T14:16:30.945Z,28.10
2022-12-03T14:19:48.327Z,29.33
2022-12-03T14:22:53.924Z,28.73
2022-12-03T14:25:59.906Z,24.33
2022-12-03T14:29:07.162Z,29.57
2022-12-03T14:32:11.158Z,28.80
2022-12-03T14:35:13.904Z,27.30
2022-12-03T14:38:16.206Z,23.85
2022-12-03T14:41:37.030Z,28.17
2022-12-03T14:44:59.467Z,29.73
2022-12-03T14:48:01.958Z,27.90
2022-12-03T14:51:04.329Z,27.35
2022-12-03T14:54:06.579Z,25.15
2022-12-03T14:57:09.206Z,29.23
2022-12-03T15:00:12.166Z,30.40
2022-12-03T15:03:14.353Z,27.60
2022-12-03T15:06:16.615Z,27.92
2022-12-03T15:09:18.853Z,27.88
2022-12-03T15:12:21.096Z,28.35
2022-12-03T15:15:23.385Z,26.83
2022-12-03T15:18:25.752Z,30.80
2022-12-03T15:21:28.851Z,31.05
2022-12-03T15:24:31.295Z,26.23
2022-12-03T15:27:33.481Z,28.42
2022-12-03T15:30:35.978Z,30.27
2022-12-03T15:33:38.237Z,33.42
2022-12-03T15:36:40.471Z,29.25
2022-12-03T15:39:48.482Z,28.58
2022-12-03T15:42:51.161Z,31.58
2022-12-03T15:45:53.944Z,28.63
2022-12-03T15:48:56.191Z,26.42
2022-12-03T15:51:58.402Z,32.00
2022-12-03T15:55:00.841Z,32.13
2022-12-03T15:58:03.109Z,30.50
2022-12-03T16:01:05.632Z,30.80
2022-12-03T16:04:08.275Z,37.85
2022-12-03T16:07:10.841Z,29.30
2022-12-03T16:10:14.417Z,30.35
2022-12-03T16:13:16.644Z,34.28
2022-12-03T16:16:18.914Z,33.77
2022-12-03T16:19:21.540Z,32.85
2022-12-03T16:22:24.083Z,35.65
2022-12-03T16:25:26.356Z,38.88
2022-12-03T16:28:28.807Z,38.47
2022-12-03T16:31:31.172Z,41.57
2022-12-03T16:34:33.620Z,41.13
2022-12-03T16:37:36.179Z,43.13
2022-12-03T16:40:38.556Z,45.33
2022-12-03T16:43:40.933Z,42.28
2022-12-03T16:46:43.368Z,40.00
2022-12-03T16:49:45.779Z,41.03
2022-12-03T16:52:47.957Z,42.38
2022-12-03T16:55:50.205Z,39.80
2022-12-03T16:58:52.492Z,44.15
2022-12-03T17:01:57.296Z,41.33
2022-12-03T17:04:59.625Z,41.67
2022-12-03T17:08:01.845Z,42.40
2022-12-03T17:11:04.316Z,44.30
2022-12-03T17:14:06.717Z,43.30
2022-12-03T17:17:09.023Z,46.67
2022-12-03T17:20:12.651Z,50.47
2022-12-03T17:23:15.228Z,42.92
2022-12-03T17:26:18.380Z,47.55
2022-12-03T17:29:20.577Z,49.97
2022-12-03T17:32:22.904Z,52.20
2022-12-03T17:35:26.783Z,56.00
2022-12-03T17:38:32.822Z,55.33
2022-12-03T17:41:39.416Z,51.65
2022-12-03T17:44:41.819Z,47.42
2022-12-03T17:47:44.143Z,52.60
2022-12-03T17:50:46.432Z,47.65
2022-12-03T17:53:48.806Z,44.22
2022-12-03T17:56:51.233Z,54.85
2022-12-03T17:59:53.689Z,44.50
2022-12-03T18:02:56.042Z,46.90
2022-12-03T18:05:58.279Z,52.63
2022-12-03T18:09:00.554Z,48.05
2022-12-03T18:12:03.058Z,46.38
2022-12-03T18:15:05.447Z,47.40
2022-12-03T18:18:07.694Z,43.67
2022-12-03T18:21:09.951Z,51.22
2022-12-03T18:24:12.193Z,47.35
2022-12-03T18:27:14.861Z,47.08
2022-12-03T18:30:17.195Z,49.08
2022-12-03T18:33:19.984Z,45.60
2022-12-03T18:36:24.693Z,47.08
2022-12-03T18:39:28.873Z,50.92
2022-12-03T18:42:31.252Z,47.78
2022-12-03T18:45:33.484Z,46.72
2022-12-03T18:48:35.639Z,49.20
2022-12-03T18:51:37.935Z,44.53
2022-12-03T18:54:40.360Z,45.17
2022-12-03T18:57:42.798Z,49.40
2022-12-03T19:00:45.130Z,50.47
2022-12-03T19:03:47.942Z,46.40
2022-12-03T19:06:50.365Z,47.85
2022-12-03T19:09:53.244Z,44.55
2022-12-03T19:12:56.229Z,47.63
2022-12-03T19:16:01.215Z,46.15
2022-12-03T19:19:04.054Z,49.93
2022-12-03T19:22:06.545Z,54.13
2022-12-03T19:25:09.157Z,48.55
2022-12-03T19:28:11.525Z,50.35
2022-12-03T19:31:15.177Z,46.97
2022-12-03T19:34:17.701Z,46.53
2022-12-03T19:37:20.339Z,51.83
2022-12-03T19:40:22.820Z,45.58
2022-12-03T19:43:24.991Z,51.08
2022-12-03T19:46:31.293Z,52.00
2022-12-03T19:49:33.857Z,51.27
2022-12-03T19:52:36.632Z,49.45
2022-12-03T19:55:39.024Z,48.72
2022-12-03T19:58:42.253Z,50.92
2022-12-03T20:01:44.597Z,45.25
2022-12-03T20:04:47.154Z,44.03
2022-12-03T20:07:49.473Z,43.75
2022-12-03T20:10:52.280Z,46.22
2022-12-03T20:13:56.068Z,46.15
2022-12-03T20:16:59.567Z,47.13
2022-12-03T20:20:02.145Z,51.03
2022-12-03T20:23:07.488Z,49.97
2022-12-03T20:26:11.198Z,49.63
2022-12-03T20:29:13.577Z,50.13
2022-12-03T20:32:16.004Z,53.75
2022-12-03T20:35:18.537Z,53.20
2022-12-03T20:38:21.443Z,51.95
2022-12-03T20:41:23.970Z,48.45
2022-12-03T20:44:26.416Z,54.28
2022-12-03T20:47:28.800Z,53.50
2022-12-03T20:50:32.714Z,53.47
2022-12-03T20:53:35.335Z,53.22
2022-12-03T20:56:42.046Z,51.45
2022-12-03T20:59:45.430Z,54.05
2022-12-03T21:02:47.747Z,48.08
2022-12-03T21:05:50.132Z,46.53
2022-12-03T21:08:53.231Z,51.58
2022-12-03T21:11:55.584Z,48.40
2022-12-03T21:14:57.797Z,53.97
2022-12-03T21:18:01.043Z,58.80
2022-12-03T21:21:04.020Z,56.23
2022-12-03T21:24:06.436Z,52.00
2022-12-03T21:27:08.810Z,53.53
2022-12-03T21:30:11.397Z,54.35
2022-12-03T21:33:13.739Z,52.83
2022-12-03T21:36:16.928Z,51.03
2022-12-03T21:39:19.534Z,53.08
2022-12-03T21:42:35.962Z,55.13
2022-12-03T21:45:40.175Z,47.08
2022-12-03T21:48:48.527Z,53.55
2022-12-03T21:51:50.742Z,52.07
2022-12-03T21:54:53.106Z,51.63
2022-12-03T21:57:55.283Z,49.33
2022-12-03T22:00:57.692Z,46.88
2022-12-03T22:04:00.373Z,52.65
2022-12-03T22:07:02.753Z,44.27
2022-12-03T22:10:09.419Z,49.58
2022-12-03T22:13:11.687Z,51.25
2022-12-03T22:16:15.465Z,50.15
2022-12-03T22:19:17.716Z,53.13
2022-12-03T22:22:20.173Z,45.90
2022-12-03T22:25:22.441Z,45.85
2022-12-03T22:28:24.940Z,44.78
2022-12-03T22:31:27.294Z,44.42
2022-12-03T22:34:29.743Z,48.05
2022-12-03T22:37:32.866Z,47.20
2022-12-03T22:40:35.087Z,42.28
2022-12-03T22:43:37.645Z,37.90
2022-12-03T22:46:40.227Z,44.83
2022-12-03T22:49:42.510Z,44.15
2022-12-03T22:52:44.884Z,46.00
2022-12-03T22:55:59.911Z,42.10
2022-12-03T22:59:02.195Z,49.95
2022-12-03T23:02:04.367Z,40.63
2022-12-03T23:05:06.929Z,44.58
2022-12-03T23:08:11.736Z,43.77
2022-12-03T23:11:14.307Z,42.65
2022-12-03T23:14:16.538Z,40.78
2022-12-03T23:17:18.703Z,40.58
2022-12-03T23:20:20.993Z,42.58
2022-12-03T23:23:24.212Z,47.87
2022-12-03T23:26:27.143Z,46.03
2022-12-03T23:29:29.380Z,41.83
2022-12-03T23:32:31.813Z,48.05
2022-12-03T23:35:34.337Z,43.92
2022-12-03T23:38:36.567Z,47.20
2022-12-03T23:41:38.886Z,44.60
2022-12-03T23:44:41.083Z,49.00
2022-12-03T23:47:43.366Z,43.10
2022-12-03T23:50:45.677Z,46.35
2022-12-03T23:53:47.967Z,48.33
2022-12-03T23:56:50.423Z,42.08
2022-12-03T23:59:53.105Z,52.08
